createdAt,value
2019-02-09T00:00:39.495Z,9.44
2019-02-09T00:01:39.450Z,9.44
2019-02-09T00:02:39.471Z,9.37
2019-02-09T00:03:39.420Z,9.37
2019-02-09T00:04:39.409Z,9.42
2019-02-09T00:05:39.409Z,9.47
2019-02-09T00:06:39.387Z,9.50
2019-02-09T00:07:39.418Z,9.45
2019-02-09T00:08:39.367Z,9.42
2019-02-09T00:09:39.404Z,9.48
2019-02-09T00:10:39.344Z,9.45
2019-02-09T00:11:39.338Z,9.47
2019-02-09T00:12:39.322Z,9.48
2019-02-09T00:13:39.312Z,9.42
2019-02-09T00:14:39.297Z,9.45
2019-02-09T00:15:39.335Z,9.47
2019-02-09T00:16:39.277Z,9.42
2019-02-09T00:17:39.273Z,9.40
2019-02-09T00:18:39.252Z,9.40
2019-02-09T00:19:39.245Z,9.44
2019-02-09T00:20:39.246Z,9.37
2019-02-09T00:21:39.268Z,9.33
2019-02-09T00:22:39.213Z,9.36
2019-02-09T00:23:39.198Z,9.44
2019-02-09T00:24:39.193Z,9.32
2019-02-09T00:25:39.178Z,9.41
2019-02-09T00:26:39.165Z,9.36
2019-02-09T00:27:39.199Z,9.37
2019-02-09T00:28:39.147Z,9.45
2019-02-09T00:29:46.113Z,9.40
2019-02-09T00:30:40.121Z,9.45
2019-02-09T00:31:39.111Z,9.44
2019-02-09T00:32:39.139Z,9.30
2019-02-09T00:33:39.088Z,9.36
2019-02-09T00:34:39.106Z,9.37
2019-02-09T00:35:39.066Z,9.32
2019-02-09T00:36:39.067Z,9.33
2019-02-09T00:37:39.044Z,9.36
2019-02-09T00:38:39.078Z,9.24
2019-02-09T00:39:39.036Z,9.24
2019-02-09T00:40:39.011Z,9.23
2019-02-09T00:41:38.999Z,9.24
2019-02-09T00:42:38.991Z,9.22
2019-02-09T00:43:38.979Z,9.24
2019-02-09T00:44:39.012Z,9.29
2019-02-09T00:45:38.958Z,9.26
2019-02-09T00:46:38.944Z,9.24
2019-02-09T00:47:38.934Z,9.19
2019-02-09T00:48:38.923Z,9.23
2019-02-09T00:49:38.917Z,9.33
2019-02-09T00:50:38.947Z,9.26
2019-02-09T00:51:38.889Z,9.16
2019-02-09T00:52:38.879Z,9.22
2019-02-09T00:53:38.871Z,9.24
2019-02-09T00:54:38.896Z,9.26
2019-02-09T00:55:38.845Z,9.16
2019-02-09T00:56:38.843Z,9.23
2019-02-09T00:57:38.824Z,9.14
2019-02-09T00:58:38.812Z,9.15
2019-02-09T00:59:38.803Z,9.15
2019-02-09T01:00:38.841Z,9.23
2019-02-09T01:01:38.818Z,9.23
2019-02-09T01:02:38.768Z,9.23
2019-02-09T01:03:38.776Z,9.27
2019-02-09T01:04:38.745Z,9.12
2019-02-09T01:05:38.776Z,8.99
2019-02-09T01:06:38.730Z,9.15
2019-02-09T01:07:38.713Z,9.08
2019-02-09T01:08:38.705Z,9.12
2019-02-09T01:09:38.692Z,9.06
2019-02-09T01:10:38.679Z,8.99
2019-02-09T01:11:38.710Z,9.03
2019-02-09T01:12:38.672Z,8.95
2019-02-09T01:13:38.648Z,8.98
2019-02-09T01:14:38.642Z,9.01
2019-02-09T01:15:38.625Z,8.88
2019-02-09T01:16:38.616Z,8.89
2019-02-09T01:17:38.646Z,8.88
2019-02-09T01:18:38.591Z,8.92
2019-02-09T01:19:38.583Z,8.93
2019-02-09T01:20:38.570Z,8.90
2019-02-09T01:21:38.661Z,8.90
2019-02-09T01:22:38.549Z,8.92
2019-02-09T01:23:38.539Z,8.95
2019-02-09T01:24:38.525Z,8.92
2019-02-09T01:25:38.525Z,8.92
2019-02-09T01:26:38.526Z,8.93
2019-02-09T01:27:38.540Z,8.90
2019-02-09T01:28:38.482Z,8.88
2019-02-09T01:29:38.470Z,8.90
2019-02-09T01:30:38.462Z,8.86
2019-02-09T01:31:38.450Z,8.85
2019-02-09T01:32:38.439Z,8.83
2019-02-09T01:33:38.469Z,8.74
2019-02-09T01:34:38.414Z,8.72
2019-02-09T01:35:38.403Z,8.78
2019-02-09T01:36:38.400Z,8.77
2019-02-09T01:37:38.383Z,8.68
2019-02-09T01:38:38.370Z,8.77
2019-02-09T01:39:38.399Z,8.72
2019-02-09T01:40:38.349Z,8.83
2019-02-09T01:41:38.337Z,8.72
2019-02-09T01:42:38.326Z,8.80
2019-02-09T01:43:38.397Z,8.72
2019-02-09T01:44:38.308Z,8.75
2019-02-09T01:45:38.293Z,8.72
2019-02-09T01:46:38.280Z,8.72
2019-02-09T01:47:38.271Z,8.71
2019-02-09T01:48:38.263Z,8.75
2019-02-09T01:49:38.286Z,8.77
2019-02-09T01:50:38.239Z,8.70
2019-02-09T01:51:38.226Z,8.68
2019-02-09T01:52:38.214Z,8.77
2019-02-09T01:53:38.248Z,8.71
2019-02-09T01:54:38.194Z,8.68
2019-02-09T01:55:38.183Z,8.72
2019-02-09T01:56:38.211Z,8.72
2019-02-09T01:57:38.161Z,8.77
2019-02-09T01:58:38.150Z,8.74
2019-02-09T01:59:38.140Z,8.78
2019-02-09T02:00:38.128Z,8.81
2019-02-09T02:01:38.119Z,8.85
2019-02-09T02:02:38.148Z,8.85
2019-02-09T02:03:38.094Z,8.77
2019-02-09T02:04:38.090Z,8.70
2019-02-09T02:05:38.115Z,8.80
2019-02-09T02:06:38.061Z,8.80
2019-02-09T02:07:38.049Z,8.74
2019-02-09T02:08:38.040Z,8.72
2019-02-09T02:09:38.027Z,8.72
2019-02-09T02:10:38.072Z,8.86
2019-02-09T02:11:38.004Z,8.81
2019-02-09T02:12:37.997Z,8.85
2019-02-09T02:13:37.992Z,8.90
2019-02-09T02:14:37.972Z,8.81
2019-02-09T02:15:37.961Z,8.89
2019-02-09T02:16:37.996Z,8.93
2019-02-09T02:17:37.941Z,8.86
2019-02-09T02:18:37.929Z,8.90
2019-02-09T02:19:37.955Z,8.93
2019-02-09T02:20:37.915Z,8.95
2019-02-09T02:21:37.939Z,9.01
2019-02-09T02:22:37.885Z,8.93
2019-02-09T02:23:37.914Z,8.93
2019-02-09T02:24:37.864Z,8.90
2019-02-09T02:25:37.854Z,8.85
2019-02-09T02:26:37.846Z,8.93
2019-02-09T02:27:37.832Z,8.96
2019-02-09T02:28:37.828Z,9.04
2019-02-09T02:29:37.851Z,9.04
2019-02-09T02:30:37.808Z,9.08
2019-02-09T02:31:37.786Z,9.03
2019-02-09T02:32:37.778Z,9.04
2019-02-09T02:33:37.765Z,9.06
2019-02-09T02:34:37.797Z,9.09
2019-02-09T02:35:37.773Z,9.04
2019-02-09T02:36:37.749Z,9.11
2019-02-09T02:37:37.723Z,9.08
2019-02-09T02:38:37.710Z,9.09
2019-02-09T02:39:37.699Z,9.12
2019-02-09T02:40:37.725Z,9.06
2019-02-09T02:41:37.676Z,9.14
2019-02-09T02:42:37.666Z,9.23
2019-02-09T02:43:37.658Z,9.14
2019-02-09T02:44:37.687Z,9.11
2019-02-09T02:45:37.637Z,9.11
2019-02-09T02:46:37.628Z,9.03
2019-02-09T02:47:37.653Z,9.14
2019-02-09T02:48:37.600Z,9.08
2019-02-09T02:49:37.588Z,9.08
2019-02-09T02:50:37.620Z,9.08
2019-02-09T02:51:37.568Z,9.03
2019-02-09T02:52:37.558Z,9.08
2019-02-09T02:53:37.548Z,9.03
2019-02-09T02:54:37.535Z,8.98
2019-02-09T02:55:37.565Z,8.95
2019-02-09T02:56:37.512Z,9.01
2019-02-09T02:57:37.541Z,8.86
2019-02-09T02:58:37.494Z,8.75
2019-02-09T02:59:37.478Z,8.77
2019-02-09T03:00:37.466Z,8.67
2019-02-09T03:01:37.458Z,8.60
2019-02-09T03:02:37.447Z,8.56
2019-02-09T03:03:37.476Z,8.42
2019-02-09T03:04:37.462Z,8.37
2019-02-09T03:05:37.415Z,8.31
2019-02-09T03:06:37.477Z,8.29
2019-02-09T03:07:37.423Z,8.28
2019-02-09T03:08:37.380Z,8.21
2019-02-09T03:09:37.369Z,8.24
2019-02-09T03:10:37.363Z,8.21
2019-02-09T03:11:37.346Z,8.24
2019-02-09T03:12:37.383Z,8.24
2019-02-09T03:13:37.331Z,8.16
2019-02-09T03:14:37.322Z,8.13
2019-02-09T03:15:37.337Z,8.13
2019-02-09T03:16:37.292Z,8.16
2019-02-09T03:17:37.282Z,8.19
2019-02-09T03:18:37.313Z,8.20
2019-02-09T03:19:37.265Z,8.24
2019-02-09T03:20:37.257Z,8.28
2019-02-09T03:21:37.304Z,8.21
2019-02-09T03:22:37.230Z,8.16
2019-02-09T03:23:37.214Z,8.13
2019-02-09T03:24:37.250Z,8.12
2019-02-09T03:25:37.200Z,8.13
2019-02-09T03:26:37.266Z,8.02
2019-02-09T03:27:37.184Z,7.98
2019-02-09T03:28:37.177Z,7.94
2019-02-09T03:29:37.199Z,7.84
2019-02-09T03:30:46.883Z,7.92
2019-02-09T03:31:38.138Z,7.84
2019-02-09T03:32:37.133Z,7.95
2019-02-09T03:33:37.111Z,7.84
2019-02-09T03:34:37.099Z,7.91
2019-02-09T03:35:37.127Z,7.77
2019-02-09T03:36:37.084Z,7.80
2019-02-09T03:37:37.066Z,7.83
2019-02-09T03:38:37.056Z,7.77
2019-02-09T03:39:37.045Z,7.80
2019-02-09T03:40:37.077Z,7.81
2019-02-09T03:41:37.021Z,7.78
2019-02-09T03:42:37.020Z,7.80
2019-02-09T03:43:37.047Z,7.77
2019-02-09T03:44:36.990Z,7.80
2019-02-09T03:45:36.980Z,7.81
2019-02-09T03:46:36.970Z,7.78
2019-02-09T03:47:36.956Z,7.80
2019-02-09T03:48:36.956Z,7.76
2019-02-09T03:49:36.975Z,7.74
2019-02-09T03:50:36.927Z,7.84
2019-02-09T03:51:36.915Z,7.77
2019-02-09T03:52:36.905Z,7.74
2019-02-09T03:53:36.896Z,7.74
2019-02-09T03:54:36.922Z,7.66
2019-02-09T03:55:36.904Z,7.73
2019-02-09T03:56:36.904Z,7.66
2019-02-09T03:57:36.849Z,7.68
2019-02-09T03:58:36.838Z,7.71
2019-02-09T03:59:36.829Z,7.68
2019-02-09T04:00:36.820Z,7.60
2019-02-09T04:01:36.809Z,7.57
2019-02-09T04:02:36.850Z,7.68
2019-02-09T04:03:36.789Z,7.62
2019-02-09T04:04:36.772Z,7.55
2019-02-09T04:05:36.768Z,7.58
2019-02-09T04:06:36.752Z,7.54
2019-02-09T04:07:36.741Z,7.55
2019-02-09T04:08:36.784Z,7.55
2019-02-09T04:09:36.718Z,7.52
2019-02-09T04:10:36.709Z,7.60
2019-02-09T04:11:36.715Z,7.52
2019-02-09T04:12:36.688Z,7.54
2019-02-09T04:13:36.676Z,7.43
2019-02-09T04:14:36.710Z,7.42
2019-02-09T04:15:36.654Z,7.43
2019-02-09T04:16:36.645Z,7.43
2019-02-09T04:17:36.636Z,7.39
2019-02-09T04:18:36.623Z,7.34
2019-02-09T04:19:36.610Z,7.42
2019-02-09T04:20:36.646Z,7.33
2019-02-09T04:21:36.590Z,7.31
2019-02-09T04:22:36.580Z,7.33
2019-02-09T04:23:36.565Z,7.31
2019-02-09T04:24:36.562Z,7.49
2019-02-09T04:25:36.544Z,7.55
2019-02-09T04:26:36.583Z,7.58
2019-02-09T04:27:36.523Z,7.64
2019-02-09T04:28:36.519Z,7.62
2019-02-09T04:29:36.501Z,7.64
2019-02-09T04:30:36.490Z,7.61
2019-02-09T04:31:36.480Z,7.58
2019-02-09T04:32:36.514Z,7.64
2019-02-09T04:33:36.458Z,7.64
2019-02-09T04:34:36.454Z,7.61
2019-02-09T04:35:36.479Z,7.62
2019-02-09T04:36:36.427Z,7.68
2019-02-09T04:37:36.416Z,7.46
2019-02-09T04:38:36.401Z,7.58
2019-02-09T04:39:36.446Z,7.57
2019-02-09T04:40:36.391Z,7.55
2019-02-09T04:41:36.373Z,7.57
2019-02-09T04:42:36.361Z,7.68
2019-02-09T04:43:36.349Z,7.61
2019-02-09T04:44:36.381Z,7.73
2019-02-09T04:45:36.335Z,7.61
2019-02-09T04:46:36.318Z,7.64
2019-02-09T04:47:36.308Z,7.61
2019-02-09T04:48:36.343Z,7.58
2019-02-09T04:49:36.293Z,7.52
2019-02-09T04:50:36.277Z,7.64
2019-02-09T04:51:36.267Z,7.40
2019-02-09T04:52:36.253Z,7.42
2019-02-09T04:53:36.310Z,7.50
2019-02-09T04:54:36.231Z,7.55
2019-02-09T04:55:36.217Z,7.49
2019-02-09T04:56:36.213Z,7.52
2019-02-09T04:57:36.198Z,7.58
2019-02-09T04:58:36.229Z,7.80
2019-02-09T04:59:36.174Z,7.92
2019-02-09T05:00:36.166Z,8.01
2019-02-09T05:01:36.152Z,8.05
2019-02-09T05:02:36.148Z,8.06
2019-02-09T05:03:36.133Z,8.02
2019-02-09T05:04:36.163Z,7.99
2019-02-09T05:05:36.110Z,7.96
2019-02-09T05:06:36.103Z,7.96
2019-02-09T05:07:36.128Z,8.04
2019-02-09T05:08:36.082Z,8.05
2019-02-09T05:09:36.065Z,8.13
2019-02-09T05:10:36.097Z,8.04
2019-02-09T05:11:36.061Z,8.12
2019-02-09T05:12:36.034Z,8.13
2019-02-09T05:13:36.028Z,8.17
2019-02-09T05:14:36.016Z,8.23
2019-02-09T05:15:36.002Z,8.24
2019-02-09T05:16:36.041Z,8.28
2019-02-09T05:17:35.978Z,8.24
2019-02-09T05:18:35.966Z,8.26
2019-02-09T05:19:35.960Z,8.29
2019-02-09T05:20:35.949Z,8.32
2019-02-09T05:21:35.937Z,8.29
2019-02-09T05:22:35.972Z,8.31
2019-02-09T05:23:35.913Z,8.35
2019-02-09T05:24:35.903Z,8.37
2019-02-09T05:25:35.931Z,8.32
2019-02-09T05:26:35.884Z,8.28
2019-02-09T05:27:35.870Z,8.29
2019-02-09T05:28:35.918Z,8.23
2019-02-09T05:29:35.851Z,8.19
2019-02-09T05:30:35.836Z,8.13
2019-02-09T05:31:35.833Z,8.23
2019-02-09T05:32:35.817Z,8.17
2019-02-09T05:33:35.849Z,8.16
2019-02-09T05:34:35.834Z,8.12
2019-02-09T05:35:35.828Z,8.09
2019-02-09T05:36:35.773Z,8.16
2019-02-09T05:37:35.804Z,8.12
2019-02-09T05:38:35.770Z,8.16
2019-02-09T05:39:35.741Z,8.10
2019-02-09T05:40:35.729Z,8.05
2019-02-09T05:41:35.719Z,8.12
2019-02-09T05:42:35.713Z,8.05
2019-02-09T05:43:35.748Z,8.13
2019-02-09T05:44:35.685Z,8.06
2019-02-09T05:45:35.676Z,7.99
2019-02-09T05:46:35.663Z,8.06
2019-02-09T05:47:35.652Z,8.06
2019-02-09T05:48:35.666Z,8.16
2019-02-09T05:49:35.681Z,8.02
2019-02-09T05:50:35.622Z,7.94
2019-02-09T05:51:35.610Z,7.86
2019-02-09T05:52:35.644Z,8.12
2019-02-09T05:53:35.587Z,8.16
2019-02-09T05:54:35.629Z,8.13
2019-02-09T05:55:35.583Z,8.16
2019-02-09T05:56:35.600Z,8.16
2019-02-09T05:57:35.544Z,8.12
2019-02-09T05:58:35.532Z,8.12
2019-02-09T05:59:35.527Z,8.12
2019-02-09T06:00:35.514Z,8.10
2019-02-09T06:01:35.505Z,8.14
2019-02-09T06:02:35.540Z,8.04
2019-02-09T06:03:35.486Z,8.05
2019-02-09T06:04:35.476Z,8.06
2019-02-09T06:05:35.477Z,8.10
2019-02-09T06:06:35.493Z,8.05
2019-02-09T06:07:35.436Z,8.02
2019-02-09T06:08:35.429Z,8.02
2019-02-09T06:09:35.413Z,8.02
2019-02-09T06:10:35.407Z,8.01
2019-02-09T06:11:35.398Z,8.04
2019-02-09T06:12:35.426Z,8.01
2019-02-09T06:13:35.394Z,7.99
2019-02-09T06:14:35.406Z,8.04
2019-02-09T06:15:35.353Z,7.96
2019-02-09T06:16:35.340Z,7.94
2019-02-09T06:17:35.342Z,7.87
2019-02-09T06:18:35.327Z,7.92
2019-02-09T06:19:35.307Z,7.91
2019-02-09T06:20:35.341Z,7.88
2019-02-09T06:21:35.284Z,7.99
2019-02-09T06:22:35.277Z,7.84
2019-02-09T06:23:35.262Z,7.88
2019-02-09T06:24:35.256Z,7.96
2019-02-09T06:25:35.242Z,8.02
2019-02-09T06:26:35.346Z,8.04
2019-02-09T06:27:35.232Z,7.95
2019-02-09T06:28:35.212Z,7.95
2019-02-09T06:29:35.216Z,7.87
2019-02-09T06:30:35.189Z,7.98
2019-02-09T06:31:40.665Z,7.91
2019-02-09T06:32:36.207Z,7.77
2019-02-09T06:33:35.156Z,7.76
2019-02-09T06:34:35.147Z,7.69
2019-02-09T06:35:35.140Z,7.66
2019-02-09T06:36:35.152Z,7.61
2019-02-09T06:37:35.131Z,7.55
2019-02-09T06:38:35.157Z,7.49
2019-02-09T06:39:35.095Z,7.43
2019-02-09T06:40:35.084Z,7.47
2019-02-09T06:41:35.071Z,7.44
2019-02-09T06:42:35.103Z,7.60
2019-02-09T06:43:35.050Z,7.71
2019-02-09T06:44:35.040Z,7.68
2019-02-09T06:45:35.029Z,7.66
2019-02-09T06:46:35.021Z,7.64
2019-02-09T06:47:35.010Z,7.50
2019-02-09T06:48:35.055Z,7.62
2019-02-09T06:49:34.986Z,7.58
2019-02-09T06:50:34.977Z,7.57
2019-02-09T06:51:34.969Z,7.62
2019-02-09T06:52:34.949Z,7.61
2019-02-09T06:53:34.987Z,7.62
2019-02-09T06:54:34.937Z,7.66
2019-02-09T06:55:34.967Z,7.71
2019-02-09T06:56:34.907Z,7.60
2019-02-09T06:57:34.946Z,7.66
2019-02-09T06:58:34.893Z,7.52
2019-02-09T06:59:34.881Z,7.50
2019-02-09T07:00:34.868Z,7.55
2019-02-09T07:01:34.905Z,7.40
2019-02-09T07:02:34.847Z,7.42
2019-02-09T07:03:34.873Z,7.34
2019-02-09T07:04:34.822Z,7.34
2019-02-09T07:05:34.812Z,7.40
2019-02-09T07:06:34.800Z,7.43
2019-02-09T07:07:34.788Z,7.50
2019-02-09T07:08:34.826Z,7.54
2019-02-09T07:09:34.779Z,7.55
2019-02-09T07:10:34.755Z,7.52
2019-02-09T07:11:34.743Z,7.55
2019-02-09T07:12:34.735Z,7.46
2019-02-09T07:13:34.725Z,7.42
2019-02-09T07:14:34.757Z,7.42
2019-02-09T07:15:34.712Z,7.29
2019-02-09T07:16:34.690Z,7.36
2019-02-09T07:17:34.704Z,7.36
2019-02-09T07:18:34.673Z,7.28
2019-02-09T07:19:34.660Z,7.31
2019-02-09T07:20:34.693Z,7.19
2019-02-09T07:21:34.637Z,7.15
2019-02-09T07:22:34.635Z,7.19
2019-02-09T07:23:34.615Z,7.07
2019-02-09T07:24:34.603Z,7.11
2019-02-09T07:25:34.592Z,7.10
2019-02-09T07:26:34.631Z,7.13
2019-02-09T07:27:34.571Z,7.11
2019-02-09T07:28:34.571Z,7.10
2019-02-09T07:29:34.558Z,7.10
2019-02-09T07:30:34.538Z,7.08
2019-02-09T07:31:34.572Z,6.99
2019-02-09T07:32:34.522Z,7.06
2019-02-09T07:33:34.512Z,6.96
2019-02-09T07:34:34.521Z,6.99
2019-02-09T07:35:34.487Z,7.08
2019-02-09T07:36:34.515Z,7.08
2019-02-09T07:37:34.468Z,7.16
2019-02-09T07:38:34.461Z,7.11
2019-02-09T07:39:34.442Z,7.10
2019-02-09T07:40:34.437Z,7.11
2019-02-09T07:41:34.468Z,7.10
2019-02-09T07:42:34.413Z,7.08
2019-02-09T07:43:34.397Z,7.11
2019-02-09T07:44:34.389Z,7.22
2019-02-09T07:45:34.384Z,7.21
2019-02-09T07:46:34.368Z,7.22
2019-02-09T07:47:34.404Z,7.21
2019-02-09T07:48:34.397Z,7.26
2019-02-09T07:49:34.377Z,7.31
2019-02-09T07:50:34.327Z,7.28
2019-02-09T07:51:34.329Z,7.28
2019-02-09T07:52:34.306Z,7.25
2019-02-09T07:53:34.337Z,7.26
2019-02-09T07:54:34.347Z,7.31
2019-02-09T07:55:34.274Z,7.42
2019-02-09T07:56:34.263Z,7.49
2019-02-09T07:57:34.258Z,7.50
2019-02-09T07:58:34.241Z,7.57
2019-02-09T07:59:34.233Z,7.57
2019-02-09T08:00:34.258Z,7.66
2019-02-09T08:01:34.208Z,7.77
2019-02-09T08:02:34.196Z,7.78
2019-02-09T08:03:34.186Z,7.95
2019-02-09T08:04:34.218Z,8.10
2019-02-09T08:05:34.171Z,8.17
2019-02-09T08:06:34.154Z,8.14
2019-02-09T08:07:34.183Z,8.19
2019-02-09T08:08:34.186Z,8.29
2019-02-09T08:09:34.123Z,8.35
2019-02-09T08:10:34.113Z,8.39
2019-02-09T08:11:34.098Z,8.44
2019-02-09T08:12:34.089Z,8.42
2019-02-09T08:13:34.094Z,8.65
2019-02-09T08:14:34.110Z,8.63
2019-02-09T08:15:34.059Z,8.72
2019-02-09T08:16:34.046Z,8.77
2019-02-09T08:17:34.043Z,8.77
2019-02-09T08:18:34.028Z,8.70
2019-02-09T08:19:34.019Z,8.85
2019-02-09T08:20:34.047Z,8.93
2019-02-09T08:21:33.989Z,8.93
2019-02-09T08:22:33.995Z,9.01
2019-02-09T08:23:33.974Z,9.08
2019-02-09T08:24:33.958Z,9.12
2019-02-09T08:25:33.945Z,9.09
2019-02-09T08:26:33.980Z,9.08
2019-02-09T08:27:33.930Z,9.04
2019-02-09T08:28:33.928Z,9.08
2019-02-09T08:29:33.905Z,9.12
2019-02-09T08:30:33.891Z,9.12
2019-02-09T08:31:33.896Z,9.06
2019-02-09T08:32:33.918Z,8.99
2019-02-09T08:33:33.865Z,9.15
2019-02-09T08:34:33.851Z,9.15
2019-02-09T08:35:33.838Z,9.12
2019-02-09T08:36:33.826Z,9.14
2019-02-09T08:37:33.816Z,9.14
2019-02-09T08:38:33.864Z,9.14
2019-02-09T08:39:33.793Z,9.04
2019-02-09T08:40:33.783Z,9.16
2019-02-09T08:41:33.788Z,9.08
2019-02-09T08:42:33.762Z,9.11
2019-02-09T08:43:33.773Z,9.15
2019-02-09T08:44:33.807Z,9.14
2019-02-09T08:45:33.739Z,9.12
2019-02-09T08:46:33.726Z,9.11
2019-02-09T08:47:33.723Z,9.12
2019-02-09T08:48:33.714Z,9.12
2019-02-09T08:49:33.691Z,9.14
2019-02-09T08:50:33.730Z,9.11
2019-02-09T08:51:33.668Z,9.04
2019-02-09T08:52:33.663Z,9.12
2019-02-09T08:53:33.646Z,9.06
2019-02-09T08:54:33.629Z,9.15
2019-02-09T08:55:33.624Z,9.12
2019-02-09T08:56:33.649Z,9.12
2019-02-09T08:57:33.643Z,9.30
2019-02-09T08:58:33.599Z,9.30
2019-02-09T08:59:33.580Z,9.26
2019-02-09T09:00:33.569Z,9.34
2019-02-09T09:01:33.560Z,9.30
2019-02-09T09:02:33.589Z,9.47
2019-02-09T09:03:33.531Z,9.41
2019-02-09T09:04:33.522Z,9.48
2019-02-09T09:05:33.532Z,9.54
2019-02-09T09:06:33.499Z,9.45
2019-02-09T09:07:33.532Z,9.54
2019-02-09T09:08:33.478Z,9.48
2019-02-09T09:09:33.482Z,9.48
2019-02-09T09:10:33.471Z,9.48
2019-02-09T09:11:33.501Z,9.48
2019-02-09T09:12:33.819Z,9.44
2019-02-09T09:13:33.424Z,9.50
2019-02-09T09:14:33.414Z,9.47
2019-02-09T09:15:33.410Z,9.48
2019-02-09T09:16:33.394Z,9.50
2019-02-09T09:17:33.427Z,9.60
2019-02-09T09:18:33.432Z,9.54
2019-02-09T09:19:33.359Z,9.57
2019-02-09T09:20:33.348Z,9.69
2019-02-09T09:21:33.337Z,9.66
2019-02-09T09:22:33.322Z,9.65
2019-02-09T09:23:33.319Z,9.63
2019-02-09T09:24:33.344Z,9.59
2019-02-09T09:25:33.299Z,9.63
2019-02-09T09:26:33.280Z,9.57
2019-02-09T09:27:33.291Z,9.60
2019-02-09T09:28:33.264Z,9.59
2019-02-09T09:29:33.246Z,9.75
2019-02-09T09:30:33.290Z,9.77
2019-02-09T09:31:33.224Z,9.70
2019-02-09T09:32:33.260Z,9.70
2019-02-09T09:33:33.206Z,9.72
2019-02-09T09:34:33.191Z,9.67
2019-02-09T09:35:33.189Z,9.78
2019-02-09T09:36:33.170Z,9.91
2019-02-09T09:37:33.220Z,9.93
2019-02-09T09:38:33.155Z,9.91
2019-02-09T09:39:33.159Z,9.93
2019-02-09T09:40:33.129Z,9.84
2019-02-09T09:41:33.179Z,9.88
2019-02-09T09:42:33.117Z,9.81
2019-02-09T09:43:34.087Z,9.98
2019-02-09T09:44:33.087Z,9.96
2019-02-09T09:45:33.071Z,9.91
2019-02-09T09:46:33.058Z,9.98
2019-02-09T09:47:33.104Z,10.09
2019-02-09T09:48:33.050Z,10.18
2019-02-09T09:49:33.041Z,10.06
2019-02-09T09:50:33.017Z,10.09
2019-02-09T09:51:33.017Z,10.17
2019-02-09T09:52:32.991Z,10.28
2019-02-09T09:53:33.050Z,10.23
2019-02-09T09:54:32.976Z,10.16
2019-02-09T09:55:32.958Z,10.18
2019-02-09T09:56:32.955Z,10.23
2019-02-09T09:57:32.938Z,10.26
2019-02-09T09:58:32.934Z,10.34
2019-02-09T09:59:32.970Z,10.43
2019-02-09T10:00:32.906Z,10.41
2019-02-09T10:01:32.929Z,10.31
2019-02-09T10:02:36.581Z,10.30
2019-02-09T10:03:32.872Z,10.31
2019-02-09T10:04:32.906Z,10.38
2019-02-09T10:05:32.862Z,10.31
2019-02-09T10:06:32.890Z,10.28
2019-02-09T10:07:32.832Z,10.35
2019-02-09T10:08:32.820Z,10.42
2019-02-09T10:09:32.815Z,10.52
2019-02-09T10:10:32.837Z,10.54
2019-02-09T10:11:32.784Z,10.55
2019-02-09T10:12:32.773Z,10.45
2019-02-09T10:13:32.761Z,10.55
2019-02-09T10:14:32.745Z,10.61
2019-02-09T10:15:32.739Z,10.61
2019-02-09T10:16:32.780Z,10.72
2019-02-09T10:17:32.719Z,10.83
2019-02-09T10:18:32.704Z,10.95
2019-02-09T10:19:32.694Z,10.87
2019-02-09T10:20:32.698Z,10.91
2019-02-09T10:21:32.670Z,11.00
2019-02-09T10:22:32.714Z,10.98
2019-02-09T10:23:32.700Z,11.03
2019-02-09T10:24:32.648Z,11.08
2019-02-09T10:25:32.631Z,11.15
2019-02-09T10:26:32.625Z,11.28
2019-02-09T10:27:32.610Z,11.28
2019-02-09T10:28:32.595Z,11.43
2019-02-09T10:29:32.627Z,11.37
2019-02-09T10:30:32.585Z,11.46
2019-02-09T10:31:32.779Z,11.46
2019-02-09T10:32:32.549Z,11.54
2019-02-09T10:33:32.535Z,11.59
2019-02-09T10:34:32.584Z,11.59
2019-02-09T10:35:32.549Z,11.58
2019-02-09T10:36:32.506Z,11.55
2019-02-09T10:37:32.504Z,11.56
2019-02-09T10:38:32.482Z,11.80
2019-02-09T10:39:32.522Z,11.84
2019-02-09T10:40:32.481Z,12.03
2019-02-09T10:41:32.445Z,12.10
2019-02-09T10:42:32.439Z,11.88
2019-02-09T10:43:32.425Z,12.00
2019-02-09T10:44:32.456Z,12.08
2019-02-09T10:45:32.403Z,11.91
2019-02-09T10:46:32.392Z,11.87
2019-02-09T10:47:32.432Z,11.84
2019-02-09T10:48:32.372Z,11.85
2019-02-09T10:49:32.362Z,11.80
2019-02-09T10:50:32.386Z,11.62
2019-02-09T10:51:32.335Z,11.69
2019-02-09T10:52:32.324Z,11.71
2019-02-09T10:53:32.317Z,11.73
2019-02-09T10:54:32.313Z,11.85
2019-02-09T10:55:32.296Z,12.10
2019-02-09T10:56:32.326Z,12.05
2019-02-09T10:57:32.273Z,12.05
2019-02-09T10:58:32.270Z,11.89
2019-02-09T10:59:32.253Z,11.96
2019-02-09T11:00:32.251Z,11.73
2019-02-09T11:01:32.226Z,11.70
2019-02-09T11:02:32.259Z,11.54
2019-02-09T11:03:32.211Z,11.56
2019-02-09T11:04:32.248Z,11.66
2019-02-09T11:05:32.184Z,11.71
2019-02-09T11:06:32.166Z,11.55
2019-02-09T11:07:32.161Z,11.62
2019-02-09T11:08:32.158Z,11.58
2019-02-09T11:09:32.155Z,11.56
2019-02-09T11:10:32.170Z,11.43
2019-02-09T11:11:32.116Z,11.38
2019-02-09T11:12:32.111Z,11.48
2019-02-09T11:13:32.110Z,11.38
2019-02-09T11:14:32.087Z,11.30
2019-02-09T11:15:32.074Z,11.36
2019-02-09T11:16:32.109Z,11.31
2019-02-09T11:17:32.094Z,11.22
2019-02-09T11:18:32.043Z,11.20
2019-02-09T11:19:32.027Z,11.20
2019-02-09T11:20:32.015Z,11.33
2019-02-09T11:21:32.003Z,11.13
2019-02-09T11:22:32.038Z,11.19
2019-02-09T11:23:31.979Z,11.15
2019-02-09T11:24:31.972Z,11.19
2019-02-09T11:25:31.958Z,11.34
2019-02-09T11:26:31.954Z,11.34
2019-02-09T11:27:31.978Z,11.30
2019-02-09T11:28:31.966Z,11.20
2019-02-09T11:29:31.914Z,11.25
2019-02-09T11:30:31.912Z,11.19
2019-02-09T11:31:31.894Z,11.22
2019-02-09T11:32:31.903Z,11.28
2019-02-09T11:33:31.888Z,11.27
2019-02-09T11:34:31.902Z,11.28
2019-02-09T11:35:32.364Z,11.31
2019-02-09T11:36:31.835Z,11.12
2019-02-09T11:37:31.828Z,11.18
2019-02-09T11:38:31.813Z,11.37
2019-02-09T11:39:31.802Z,11.33
2019-02-09T11:40:31.850Z,11.37
2019-02-09T11:41:31.792Z,11.45
2019-02-09T11:42:32.116Z,11.48
2019-02-09T11:43:31.759Z,11.51
2019-02-09T11:44:31.766Z,11.28
2019-02-09T11:45:31.747Z,11.19
2019-02-09T11:46:31.781Z,11.15
2019-02-09T11:47:31.731Z,11.23
2019-02-09T11:48:31.704Z,11.28
2019-02-09T11:49:31.691Z,11.31
2019-02-09T11:50:31.687Z,11.31
2019-02-09T11:51:31.672Z,11.31
2019-02-09T11:52:31.701Z,11.43
2019-02-09T11:53:31.648Z,11.37
2019-02-09T11:54:31.639Z,11.43
2019-02-09T11:55:31.628Z,11.40
2019-02-09T11:56:31.617Z,11.48
2019-02-09T11:57:31.604Z,11.58
2019-02-09T11:58:31.635Z,11.80
2019-02-09T11:59:31.584Z,11.77
2019-02-09T12:00:31.569Z,11.77
2019-02-09T12:01:31.563Z,11.77
2019-02-09T12:02:31.590Z,11.79
2019-02-09T12:03:31.540Z,11.74
2019-02-09T12:04:31.524Z,11.85
2019-02-09T12:05:31.522Z,11.88
2019-02-09T12:06:31.513Z,11.89
2019-02-09T12:07:31.551Z,11.84
2019-02-09T12:08:31.505Z,11.96
2019-02-09T12:09:31.471Z,12.08
2019-02-09T12:10:31.467Z,12.10
2019-02-09T12:11:31.452Z,12.17
2019-02-09T12:12:32.534Z,12.15
2019-02-09T12:13:31.485Z,12.28
2019-02-09T12:14:31.414Z,12.35
2019-02-09T12:15:31.405Z,12.46
2019-02-09T12:16:31.392Z,12.51
2019-02-09T12:17:31.430Z,12.48
2019-02-09T12:18:31.375Z,12.63
2019-02-09T12:19:31.360Z,12.32
2019-02-09T12:20:31.357Z,12.29
2019-02-09T12:21:31.340Z,12.18
2019-02-09T12:22:31.328Z,12.21
2019-02-09T12:23:31.361Z,12.21
2019-02-09T12:24:31.305Z,12.28
2019-02-09T12:25:31.295Z,12.28
2019-02-09T12:26:31.281Z,12.41
2019-02-09T12:27:31.325Z,12.55
2019-02-09T12:28:31.259Z,12.59
2019-02-09T12:29:31.294Z,12.50
2019-02-09T12:30:31.235Z,12.48
2019-02-09T12:31:31.273Z,12.47
2019-02-09T12:32:31.220Z,12.33
2019-02-09T12:33:31.206Z,12.11
2019-02-09T12:34:31.203Z,12.15
2019-02-09T12:35:31.184Z,12.23
2019-02-09T12:36:31.189Z,12.18
2019-02-09T12:37:32.236Z,12.21
2019-02-09T12:38:31.510Z,12.23
2019-02-09T12:39:31.145Z,12.26
2019-02-09T12:40:31.131Z,12.17
2019-02-09T12:41:31.122Z,12.04
2019-02-09T12:42:31.105Z,11.97
2019-02-09T12:43:31.136Z,12.03
2019-02-09T12:44:31.097Z,11.87
2019-02-09T12:45:31.072Z,12.04
2019-02-09T12:46:31.125Z,12.14
2019-02-09T12:47:31.064Z,12.21
2019-02-09T12:48:31.076Z,12.13
2019-02-09T12:49:31.035Z,12.00
2019-02-09T12:50:31.017Z,11.89
2019-02-09T12:51:31.061Z,11.97
2019-02-09T12:52:30.993Z,11.93
2019-02-09T12:53:30.993Z,12.03
2019-02-09T12:54:31.017Z,12.07
2019-02-09T12:55:30.962Z,12.15
2019-02-09T12:56:31.003Z,12.10
2019-02-09T12:57:30.939Z,12.21
2019-02-09T12:58:30.934Z,12.29
2019-02-09T12:59:30.915Z,12.21
2019-02-09T13:00:30.920Z,12.15
2019-02-09T13:01:30.898Z,12.15
2019-02-09T13:02:31.059Z,12.04
2019-02-09T13:03:31.650Z,12.15
2019-02-09T13:04:30.860Z,12.33
2019-02-09T13:05:30.865Z,12.18
2019-02-09T13:06:30.840Z,12.18
2019-02-09T13:07:30.840Z,12.22
2019-02-09T13:08:30.870Z,12.29
2019-02-09T13:09:30.805Z,12.23
2019-02-09T13:10:30.800Z,12.13
2019-02-09T13:11:30.792Z,12.11